Time;durP1;ratioP1;P1;durP2;ratioP2;P2;SDS_P1;SDS_P2;PMS_P1;PMS_P2;Temp;Humidity;BMP_temperature;BMP_pressure;BME280_temperature;BME280_humidity;BME280_pressure;Samples;Min_cycle;Max_cycle;Signal;HPM_P1;HPM_P2
2022/08/12 00:44:58;;;;;;;5.00;1.20;;;22.50;58.30;;;;;;5084999;28;20032;-65
2022/08/12 00:47:24;;;;;;;2.92;1.35;;;22.50;58.50;;;;;;5082070;28;20020;-66
2022/08/12 00:49:50;;;;;;;2.42;1.20;;;22.50;58.70;;;;;;5085430;28;20016;-65
2022/08/12 00:52:16;;;;;;;2.30;1.30;;;22.50;58.90;;;;;;5081817;28;20099;-65
2022/08/12 00:54:56;;;;;;;2.10;1.10;;;22.40;59.00;;;;;;5086015;28;20022;-65
2022/08/12 00:57:29;;;;;;;3.45;1.42;;;22.40;59.10;;;;;;5093806;28;20024;-65
2022/08/12 00:59:57;;;;;;;1.75;1.23;;;22.40;59.30;;;;;;5090967;28;20488;-65
2022/08/12 01:02:29;;;;;;;3.07;1.90;;;22.30;59.50;;;;;;5089801;28;20020;-65
2022/08/12 01:13:21;;;;;;;2.03;1.40;;;22.20;60.50;;;;;;5088831;28;20032;-65
2022/08/12 01:15:50;;;;;;;1.50;1.08;;;22.10;60.70;;;;;;5092137;28;20020;-65
2022/08/12 01:18:19;;;;;;;3.20;1.20;;;22.10;60.80;;;;;;5092123;28;20071;-65
2022/08/12 01:20:50;;;;;;;1.97;1.50;;;22.10;61.00;;;;;;5085901;28;20493;-65
2022/08/12 01:23:23;;;;;;;1.77;1.20;;;22.00;61.20;;;;;;5091651;28;20458;-66
2022/08/12 01:25:52;;;;;;;3.53;1.30;;;21.90;61.40;;;;;;5089949;28;20012;-65
2022/08/12 01:28:19;;;;;;;2.88;1.60;;;21.90;61.60;;;;;;5091997;28;20070;-65
2022/08/12 01:30:48;;;;;;;2.13;1.20;;;21.90;61.80;;;;;;5088438;28;20507;-65
2022/08/12 01:33:16;;;;;;;2.03;1.45;;;21.90;61.90;;;;;;5076448;28;20060;-65
2022/08/12 01:35:48;;;;;;;3.72;1.48;;;21.80;62.10;;;;;;5090588;28;20111;-65
2022/08/12 01:38:19;;;;;;;2.17;1.35;;;21.80;62.40;;;;;;5091767;28;20032;-65
2022/08/12 01:40:46;;;;;;;3.40;1.50;;;21.80;62.70;;;;;;5089062;28;20035;-65
2022/08/12 01:43:21;;;;;;;2.95;1.73;;;21.80;62.90;;;;;;5091655;28;20012;-65
2022/08/12 01:46:18;;;;;;;4.03;1.38;;;21.70;62.90;;;;;;5090238;28;20008;-65
2022/08/12 01:48:58;;;;;;;3.80;1.23;;;21.80;62.90;;;;;;5084694;28;20024;-65
2022/08/12 01:51:42;;;;;;;1.92;0.93;;;21.70;63.00;;;;;;5091535;28;20020;-65
2022/08/12 01:54:11;;;;;;;2.60;1.33;;;21.70;62.90;;;;;;5089414;28;20485;-66
2022/08/12 01:56:55;;;;;;;2.65;1.30;;;21.60;63.00;;;;;;5091218;28;20028;-65
2022/08/12 01:59:48;;;;;;;3.70;1.45;;;21.70;63.10;;;;;;5078426;28;20024;-65
2022/08/12 02:02:17;;;;;;;2.67;1.58;;;21.60;63.50;;;;;;5090158;28;20023;-65
2022/08/12 02:11:21;;;;;;;3.20;1.60;;;21.50;64.30;;;;;;5089750;28;20023;-65
2022/08/12 02:14:19;;;;;;;2.95;1.73;;;21.40;64.50;;;;;;5088800;28;20423;-65
2022/08/12 02:17:17;;;;;;;2.08;1.42;;;21.40;65.10;;;;;;5087004;28;20043;-65
2022/08/12 02:20:03;;;;;;;2.78;1.52;;;21.40;65.10;;;;;;5090688;28;20504;-65
2022/08/12 02:22:39;;;;;;;4.15;1.90;;;21.30;65.40;;;;;;5088927;28;20031;-65
2022/08/12 02:25:10;;;;;;;2.00;1.27;;;21.30;65.70;;;;;;5088398;28;20015;-65
2022/08/12 02:27:42;;;;;;;2.13;1.38;;;21.30;65.90;;;;;;5090837;28;20081;-65
2022/08/12 02:30:18;;;;;;;2.58;2.00;;;21.30;66.00;;;;;;5090963;28;20024;-66
2022/08/12 02:32:45;;;;;;;3.22;1.65;;;21.20;66.00;;;;;;5091151;28;20027;-65
2022/08/12 02:35:14;;;;;;;3.53;1.80;;;21.20;66.20;;;;;;5090869;28;20028;-65
2022/08/12 02:37:42;;;;;;;2.93;2.10;;;21.20;66.60;;;;;;5090654;28;20107;-65
2022/08/12 02:40:09;;;;;;;2.45;1.50;;;21.10;66.80;;;;;;5087767;28;20044;-65
2022/08/12 02:42:37;;;;;;;3.38;2.20;;;21.10;66.90;;;;;;5092034;28;20027;-65
2022/08/12 02:45:06;;;;;;;2.80;1.80;;;21.10;67.40;;;;;;5090629;28;20012;-65
2022/08/12 02:47:37;;;;;;;4.32;1.80;;;21.10;67.60;;;;;;5093884;28;20021;-65
2022/08/12 02:50:04;;;;;;;3.13;1.67;;;21.10;67.90;;;;;;5094805;28;20016;-65
2022/08/12 02:52:31;;;;;;;3.92;1.60;;;21.00;67.90;;;;;;5094838;28;20027;-65
2022/08/12 02:55:04;;;;;;;2.33;1.85;;;21.00;68.20;;;;;;5094670;28;20043;-65
2022/08/12 02:57:31;;;;;;;3.72;1.83;;;21.00;68.40;;;;;;5092423;28;20099;-65
2022/08/12 02:59:59;;;;;;;3.03;1.60;;;21.00;68.50;;;;;;5091929;28;20020;-65
2022/08/12 03:02:27;;;;;;;2.53;1.90;;;21.00;68.60;;;;;;5091737;28;20497;-65
2022/08/12 03:04:57;;;;;;;2.30;1.53;;;21.00;68.90;;;;;;5094669;28;20099;-65
2022/08/12 03:07:23;;;;;;;2.58;1.20;;;20.90;68.90;;;;;;5065988;28;20104;-65
2022/08/12 03:10:02;;;;;;;2.45;1.60;;;20.90;69.00;;;;;;5094678;28;20095;-65
2022/08/12 03:12:31;;;;;;;4.18;1.90;;;20.90;69.20;;;;;;5089534;28;20433;-65
2022/08/12 03:15:01;;;;;;;2.83;1.95;;;20.90;70.00;;;;;;5094120;28;20211;-65
2022/08/12 03:17:38;;;;;;;4.88;1.75;;;20.80;70.20;;;;;;5090384;28;20131;-65
2022/08/12 03:20:05;;;;;;;2.60;1.75;;;20.80;70.20;;;;;;5094065;28;20494;-65
2022/08/12 03:22:33;;;;;;;3.05;1.70;;;20.80;70.60;;;;;;5094507;28;20042;-65
2022/08/12 03:25:02;;;;;;;3.75;2.67;;;20.70;70.70;;;;;;5094255;28;20031;-65
2022/08/12 03:27:28;;;;;;;2.78;2.40;;;20.80;71.30;;;;;;5090473;28;20021;-65
2022/08/12 03:29:57;;;;;;;4.05;2.20;;;20.70;71.70;;;;;;5094056;28;20075;-66
2022/08/12 03:32:24;;;;;;;2.45;2.03;;;20.60;72.00;;;;;;5082209;28;20107;-65
2022/08/12 03:34:50;;;;;;;2.75;1.92;;;20.60;72.10;;;;;;5093850;28;20020;-65
2022/08/12 03:37:19;;;;;;;3.47;2.25;;;20.60;72.10;;;;;;5094042;28;20016;-65
2022/08/12 03:39:45;;;;;;;4.57;2.70;;;20.60;72.10;;;;;;5086200;28;20040;-65
2022/08/12 03:42:21;;;;;;;3.28;1.95;;;20.50;72.30;;;;;;5093904;28;20758;-65
2022/08/12 04:01:57;;;;;;;3.15;2.55;;;20.30;73.30;;;;;;5093611;28;20031;-65
2022/08/12 04:04:32;;;;;;;3.97;2.20;;;20.20;73.50;;;;;;5093605;28;20028;-66
2022/08/12 04:06:59;;;;;;;3.08;2.45;;;20.20;73.50;;;;;;5093625;28;20020;-65
2022/08/12 04:09:26;;;;;;;3.28;2.55;;;20.20;73.70;;;;;;5093447;28;20040;-65
2022/08/12 04:14:36;;;;;;;3.90;2.67;;;20.20;74.20;;;;;;5092910;28;20047;-65
2022/08/12 04:17:02;;;;;;;3.50;2.60;;;20.10;74.40;;;;;;5094539;28;20470;-65
2022/08/12 04:19:29;;;;;;;4.78;3.30;;;20.10;74.60;;;;;;5094484;28;20036;-65
2022/08/12 04:21:54;;;;;;;3.35;2.60;;;20.10;75.00;;;;;;5094726;28;20430;-65
2022/08/12 04:24:23;;;;;;;3.92;2.97;;;20.10;75.20;;;;;;5089840;28;20587;-65
2022/08/12 04:26:49;;;;;;;3.07;2.40;;;20.00;75.60;;;;;;5092944;28;20044;-65
2022/08/12 04:29:14;;;;;;;4.28;3.05;;;20.00;75.60;;;;;;5105404;28;20487;-65
2022/08/12 04:31:41;;;;;;;3.17;2.72;;;20.00;75.80;;;;;;5094467;28;20024;-65
2022/08/12 04:34:11;;;;;;;4.20;3.65;;;20.00;75.90;;;;;;5094446;28;20122;-65
2022/08/12 04:37:00;;;;;;;4.38;3.00;;;20.00;76.10;;;;;;5085189;28;20028;-65
2022/08/12 04:39:26;;;;;;;4.63;3.90;;;20.00;76.30;;;;;;5090276;28;20031;-65
2022/08/12 04:41:52;;;;;;;5.38;3.13;;;19.90;76.50;;;;;;5093901;28;20319;-65
2022/08/12 04:44:18;;;;;;;5.35;3.13;;;19.90;76.60;;;;;;5093513;28;20016;-65
2022/08/12 04:46:43;;;;;;;7.10;3.10;;;19.90;76.70;;;;;;5094192;28;20031;-65
2022/08/12 04:49:09;;;;;;;3.55;2.67;;;19.80;76.80;;;;;;5093944;28;20389;-65
2022/08/12 04:51:35;;;;;;;3.20;2.90;;;19.90;76.90;;;;;;5092805;28;20439;-65
2022/08/12 04:54:03;;;;;;;4.50;3.33;;;19.90;76.80;;;;;;5092763;28;20440;-66
2022/08/12 04:56:29;;;;;;;4.55;3.13;;;19.90;77.00;;;;;;5093742;28;20060;-65
2022/08/12 04:58:56;;;;;;;2.70;2.28;;;19.90;76.90;;;;;;5093841;28;20019;-65
2022/08/12 05:01:26;;;;;;;2.92;2.45;;;19.90;76.80;;;;;;5093538;28;20071;-65
2022/08/12 05:03:57;;;;;;;3.22;2.53;;;19.90;76.80;;;;;;5093688;28;20019;-65
2022/08/12 05:06:25;;;;;;;4.35;2.70;;;19.90;76.90;;;;;;5080221;28;20024;-65
2022/08/12 05:08:53;;;;;;;5.13;2.70;;;19.90;77.10;;;;;;5093870;28;20501;-65
2022/08/12 05:11:23;;;;;;;3.00;2.70;;;19.90;77.20;;;;;;5091289;28;20032;-65
2022/08/12 05:13:51;;;;;;;5.60;3.00;;;19.90;77.20;;;;;;5093228;28;20064;-65
2022/08/12 05:16:16;;;;;;;4.60;2.97;;;19.90;77.30;;;;;;5091408;28;20024;-65
2022/08/12 05:18:42;;;;;;;4.88;2.67;;;20.00;77.50;;;;;;5093677;28;20492;-65
2022/08/12 05:21:08;;;;;;;5.60;3.00;;;20.00;77.70;;;;;;5078568;28;20028;-65
2022/08/12 05:23:38;;;;;;;2.72;2.33;;;20.00;77.80;;;;;;5093770;28;20016;-65
2022/08/12 05:26:03;;;;;;;;;;;20.00;77.90;;;;;;5093695;28;20024;-65
2022/08/12 05:28:29;;;;;;;3.60;3.20;;;20.00;78.10;;;;;;5093679;28;20273;-65
2022/08/12 05:30:56;;;;;;;4.07;3.67;;;19.90;78.60;;;;;;5093212;28;20485;-65
2022/08/12 05:33:36;;;;;;;4.22;3.15;;;20.00;78.70;;;;;;5093205;28;20035;-65
2022/08/12 05:36:06;;;;;;;3.50;3.20;;;20.00;78.70;;;;;;5091734;28;20081;-65
2022/08/12 05:41:19;;;;;;;5.00;3.20;;;20.10;78.90;;;;;;5072533;28;20062;-65
2022/08/12 05:44:02;;;;;;;6.05;4.30;;;20.10;79.10;;;;;;5087886;28;20465;-65
2022/08/12 05:46:29;;;;;;;5.95;3.65;;;20.20;79.20;;;;;;5091389;28;20047;-65
2022/08/12 05:48:57;;;;;;;4.25;3.53;;;20.10;79.40;;;;;;5090000;28;20397;-65
2022/08/12 05:51:25;;;;;;;4.82;4.20;;;20.10;79.60;;;;;;5091836;28;20090;-65
2022/08/12 05:53:52;;;;;;;4.88;3.45;;;20.20;79.70;;;;;;5092093;28;20039;-65
2022/08/12 05:56:21;;;;;;;4.45;3.60;;;20.20;79.60;;;;;;5093011;28;20039;-65
2022/08/12 05:58:47;;;;;;;5.03;3.38;;;20.20;79.70;;;;;;5089910;28;20023;-65
2022/08/12 06:01:13;;;;;;;5.50;3.95;;;20.30;79.80;;;;;;5092252;28;20028;-65
2022/08/12 06:03:39;;;;;;;4.65;3.97;;;20.30;79.80;;;;;;5092783;28;20016;-66
2022/08/12 06:06:05;;;;;;;6.53;4.57;;;20.30;79.70;;;;;;5092792;28;20500;-65
2022/08/12 06:08:33;;;;;;;5.53;4.10;;;20.30;79.90;;;;;;5092398;28;20020;-66
2022/08/12 06:11:00;;;;;;;6.25;4.05;;;20.40;79.80;;;;;;5091589;28;20031;-65
2022/08/12 06:13:25;;;;;;;4.85;3.92;;;20.40;79.70;;;;;;5091002;28;20028;-65
2022/08/12 06:16:10;;;;;;;4.90;3.85;;;20.40;79.50;;;;;;5092559;28;20103;-65
2022/08/12 06:18:39;;;;;;;4.88;3.92;;;20.50;79.30;;;;;;5081086;28;20389;-65
2022/08/12 06:21:11;;;;;;;5.32;3.92;;;20.50;79.30;;;;;;5091475;28;20069;-65
2022/08/12 06:23:38;;;;;;;5.05;4.32;;;20.60;79.20;;;;;;5092994;28;20020;-65
2022/08/12 06:26:10;;;;;;;5.63;3.85;;;20.60;79.10;;;;;;5092162;28;20012;-65
2022/08/12 06:28:40;;;;;;;5.00;3.75;;;20.60;79.00;;;;;;5092839;28;20503;-65
2022/08/12 06:31:06;;;;;;;6.97;4.38;;;20.60;78.90;;;;;;5092189;28;20032;-65
2022/08/12 06:33:33;;;;;;;5.72;4.20;;;20.70;79.00;;;;;;5083275;28;20127;-65
2022/08/12 06:35:59;;;;;;;5.25;3.90;;;20.70;78.70;;;;;;5088916;28;20389;-65
2022/08/12 06:38:26;;;;;;;4.30;3.88;;;20.80;78.60;;;;;;5091865;28;20055;-65
2022/08/12 06:43:42;;;;;;;7.50;4.55;;;20.90;78.30;;;;;;5091274;28;20044;-65
2022/08/12 06:46:26;;;;;;;;;;;;;;;;;;;;;
2022/08/12 06:48:57;;;;;;;7.90;4.40;;;21.00;78.00;;;;;;5090169;28;20023;-66
2022/08/12 06:51:27;;;;;;;6.25;4.22;;;21.00;77.50;;;;;;5089158;28;20016;-65
2022/08/12 06:53:54;;;;;;;4.05;3.42;;;21.10;77.10;;;;;;5090984;28;20107;-65
2022/08/12 06:56:21;;;;;;;5.15;3.38;;;21.10;77.00;;;;;;5090103;28;20427;-65
2022/08/12 06:58:46;;;;;;;3.50;3.20;;;21.20;76.70;;;;;;5088253;28;20085;-65
2022/08/12 07:01:12;;;;;;;4.45;3.50;;;21.30;76.40;;;;;;5088988;28;20024;-65
2022/08/12 07:03:38;;;;;;;5.90;3.40;;;21.30;76.10;;;;;;5089658;28;20051;-66
2022/08/12 07:06:09;;;;;;;5.63;3.70;;;21.40;75.90;;;;;;5090839;28;20473;-66
2022/08/12 07:08:34;;;;;;;4.07;3.33;;;21.50;75.30;;;;;;5092068;28;20012;-66
2022/08/12 07:11:02;;;;;;;3.95;3.00;;;21.50;75.10;;;;;;5079641;28;20055;-66
2022/08/12 07:13:42;;;;;;;4.25;3.05;;;21.60;74.90;;;;;;5106666;28;20507;-66
2022/08/12 07:16:12;;;;;;;3.40;2.53;;;21.60;74.70;;;;;;5090724;28;20039;-65
2022/08/12 07:18:39;;;;;;;5.07;2.95;;;21.70;74.60;;;;;;5091950;28;20062;-66
2022/08/12 07:21:07;;;;;;;4.43;2.90;;;21.70;74.10;;;;;;5089660;28;20027;-66
2022/08/12 07:23:35;;;;;;;3.72;2.95;;;21.80;74.00;;;;;;5091800;28;20475;-65
2022/08/12 07:26:04;;;;;;;4.47;2.83;;;21.90;73.70;;;;;;5091034;28;20028;-66
2022/08/12 07:28:33;;;;;;;3.28;2.88;;;22.00;73.30;;;;;;5090790;28;20020;-66
2022/08/12 07:30:59;;;;;;;;;;;22.00;73.10;;;;;;5091721;28;20031;-66
2022/08/12 07:33:27;;;;;;;3.92;2.70;;;22.10;73.10;;;;;;5091977;28;19904;-66
2022/08/12 07:35:54;;;;;;;3.17;2.85;;;22.20;72.80;;;;;;5093265;28;20085;-65
2022/08/12 07:38:27;;;;;;;4.95;2.75;;;22.20;72.30;;;;;;5094557;28;20035;-66
2022/08/12 07:41:00;;;;;;;3.60;3.17;;;22.30;71.90;;;;;;5092706;28;20383;-65
2022/08/12 07:43:26;;;;;;;4.85;2.92;;;22.40;71.60;;;;;;5093289;28;20047;-65
2022/08/12 07:45:54;;;;;;;3.40;2.75;;;22.50;72.20;;;;;;5093615;28;20051;-65
2022/08/12 07:48:23;;;;;;;4.65;3.15;;;22.60;71.30;;;;;;5094481;28;20028;-65
2022/08/12 07:50:49;;;;;;;3.88;2.92;;;22.70;71.10;;;;;;5090620;28;20082;-65
2022/08/12 07:53:14;;;;;;;6.55;3.30;;;22.80;70.80;;;;;;5093354;28;20093;-65
2022/08/12 07:55:40;;;;;;;3.97;3.10;;;22.90;70.60;;;;;;5093823;28;20027;-65
2022/08/12 07:58:07;;;;;;;3.75;2.63;;;23.00;70.20;;;;;;5093934;28;20024;-65
2022/08/12 08:00:35;;;;;;;5.10;2.85;;;23.10;69.80;;;;;;5091278;28;20050;-65
2022/08/12 08:03:00;;;;;;;6.13;3.25;;;23.20;69.70;;;;;;5092841;28;20020;-65
2022/08/12 08:05:36;;;;;;;5.50;2.70;;;23.30;69.60;;;;;;5092989;28;20024;-65
2022/08/12 08:08:11;;;;;;;4.63;2.70;;;23.40;69.20;;;;;;5093222;28;20027;-65
2022/08/12 08:10:36;;;;;;;6.38;2.90;;;23.50;68.80;;;;;;5093713;28;20055;-65
2022/08/12 08:13:03;;;;;;;4.43;2.53;;;23.50;68.50;;;;;;5091714;28;20051;-65
2022/08/12 08:15:33;;;;;;;2.63;2.03;;;23.70;68.40;;;;;;5093167;28;20507;-65
2022/08/12 08:18:02;;;;;;;3.42;2.20;;;23.80;68.20;;;;;;5090579;28;20028;-66
2022/08/12 08:20:38;;;;;;;3.28;2.30;;;23.90;68.00;;;;;;5091804;28;20028;-65
2022/08/12 08:23:08;;;;;;;4.25;2.22;;;24.00;67.50;;;;;;5092350;28;20016;-65
2022/08/12 08:25:37;;;;;;;2.35;1.98;;;24.10;67.00;;;;;;5094581;28;20064;-65
2022/08/12 08:28:05;;;;;;;5.50;2.20;;;24.20;66.40;;;;;;5094450;28;20012;-65
2022/08/12 08:30:32;;;;;;;3.67;2.10;;;24.30;66.50;;;;;;5094436;28;20073;-65
2022/08/12 08:32:58;;;;;;;4.10;2.13;;;24.40;65.50;;;;;;5090102;28;20024;-65
2022/08/12 08:35:24;;;;;;;2.28;1.80;;;24.50;65.00;;;;;;5087118;28;20023;-66
2022/08/12 08:38:05;;;;;;;3.10;1.95;;;24.60;64.60;;;;;;5091125;28;20020;-65
2022/08/12 08:43:15;;;;;;;9.20;2.08;;;24.90;64.10;;;;;;5092590;28;20081;-65
2022/08/12 08:45:40;;;;;;;3.05;2.00;;;25.00;62.90;;;;;;5090745;28;20016;-66
2022/08/12 08:48:05;;;;;;;2.67;1.67;;;25.10;62.20;;;;;;5093096;28;20020;-65
2022/08/12 08:50:31;;;;;;;4.63;2.05;;;25.20;61.90;;;;;;5088092;28;20020;-65
2022/08/12 08:52:58;;;;;;;5.97;1.67;;;25.30;61.60;;;;;;5089504;28;20090;-65
2022/08/12 08:55:24;;;;;;;8.73;2.00;;;25.40;61.60;;;;;;5089120;28;20738;-65
2022/08/12 08:57:53;;;;;;;4.07;1.83;;;25.50;61.00;;;;;;5085170;28;20048;-66
2022/08/12 09:00:19;;;;;;;3.58;1.83;;;25.70;60.20;;;;;;5082283;28;20040;-65
2022/08/12 09:02:46;;;;;;;5.22;2.13;;;25.80;60.00;;;;;;5093504;28;20504;-65
2022/08/12 09:05:12;;;;;;;4.35;2.13;;;25.90;59.80;;;;;;5091102;28;20491;-65
2022/08/12 09:07:46;;;;;;;4.43;2.03;;;26.00;59.50;;;;;;5093796;28;20435;-66
2022/08/12 09:10:15;;;;;;;2.67;1.90;;;26.10;57.90;;;;;;5093334;28;20066;-65
2022/08/12 09:15:26;;;;;;;4.75;1.50;;;26.30;57.30;;;;;;5082045;28;20035;-66
2022/08/12 09:17:56;;;;;;;2.45;1.40;;;26.40;57.20;;;;;;5092332;28;20466;-66
2022/08/12 09:20:26;;;;;;;3.10;1.58;;;26.50;56.40;;;;;;5088594;28;20028;-65
2022/08/12 09:22:56;;;;;;;4.00;2.20;;;26.60;56.10;;;;;;5088962;28;20371;-66
2022/08/12 09:25:26;;;;;;;4.55;1.95;;;26.70;55.60;;;;;;5089852;28;20040;-66
2022/08/12 09:27:53;;;;;;;3.63;1.70;;;26.80;55.00;;;;;;5080672;28;20024;-65
2022/08/12 09:30:19;;;;;;;3.28;1.60;;;27.00;54.80;;;;;;5081179;28;20482;-65
2022/08/12 09:32:49;;;;;;;2.75;1.30;;;27.00;54.30;;;;;;5077280;28;20096;-66
2022/08/12 09:35:18;;;;;;;2.42;1.42;;;27.10;53.70;;;;;;5084459;28;20542;-66
2022/08/12 09:37:45;;;;;;;1.90;1.40;;;27.20;53.30;;;;;;5093048;28;20444;-65
2022/08/12 09:40:11;;;;;;;2.17;1.40;;;27.40;49.80;;;;;;5089854;28;20502;-66
2022/08/12 09:45:21;;;;;;;4.15;2.03;;;27.60;46.60;;;;;;5089490;28;20023;-66
2022/08/12 09:47:48;;;;;;;2.80;1.70;;;27.80;47.10;;;;;;5092151;28;20020;-66
2022/08/12 09:50:15;;;;;;;4.03;1.65;;;27.90;48.30;;;;;;5082156;28;20040;-66
2022/08/12 09:52:41;;;;;;;2.75;1.58;;;28.00;49.10;;;;;;5090446;28;20016;-66
2022/08/12 09:55:09;;;;;;;3.90;1.50;;;28.00;49.50;;;;;;5086067;28;20401;-66
2022/08/12 09:57:35;;;;;;;3.55;1.50;;;28.10;50.00;;;;;;5089521;28;20536;-66
2022/08/12 10:00:07;;;;;;;4.47;2.20;;;28.20;50.00;;;;;;5086209;28;20028;-66
2022/08/12 10:02:37;;;;;;;3.60;1.20;;;28.30;49.10;;;;;;5090125;28;20020;-66
2022/08/12 10:05:04;;;;;;;5.68;1.63;;;28.40;48.00;;;;;;5073134;28;20059;-66
2022/08/12 10:07:30;;;;;;;3.45;1.52;;;28.50;48.30;;;;;;5088496;28;20016;-66
2022/08/12 10:09:56;;;;;;;4.03;1.80;;;28.60;48.40;;;;;;5083960;28;20024;-66
2022/08/12 10:15:06;;;;;;;2.55;1.50;;;28.70;47.60;;;;;;5092717;28;20090;-66
2022/08/12 10:17:31;;;;;;;2.70;2.05;;;28.80;47.80;;;;;;5092716;28;20103;-66
2022/08/12 10:19:57;;;;;;;1.65;1.15;;;29.00;47.50;;;;;;5092773;28;20107;-66
2022/08/12 10:22:22;;;;;;;3.55;1.50;;;29.00;47.30;;;;;;5092244;28;20032;-66
2022/08/12 10:29:35;;;;;;;6.13;1.83;;;29.10;46.70;;;;;;5091872;28;20028;-66
2022/08/12 10:30:20;;;;;;;2.80;1.50;;;29.30;45.80;;;;;;5085105;28;20107;-66
2022/08/12 10:32:59;;;;;;;3.90;1.60;;;29.40;45.20;;;;;;5090260;28;20099;-66
2022/08/12 10:35:31;;;;;;;;;;;29.60;45.20;;;;;;5091069;28;20059;-66
2022/08/12 10:38:01;;;;;;;2.47;1.83;;;29.60;44.90;;;;;;5087479;28;19950;-66
2022/08/12 10:40:27;;;;;;;2.00;1.38;;;29.70;44.60;;;;;;5088362;28;20043;-66
2022/08/12 10:45:37;;;;;;;1.88;1.35;;;29.90;44.00;;;;;;5087730;28;20065;-66
2022/08/12 10:48:04;;;;;;;3.17;1.50;;;30.10;43.60;;;;;;5089502;28;20432;-66
2022/08/12 10:50:30;;;;;;;3.60;1.73;;;30.20;43.40;;;;;;5088209;28;20099;-66
2022/08/12 10:52:55;;;;;;;2.38;1.48;;;30.30;43.00;;;;;;5091615;28;20537;-67
2022/08/12 10:55:21;;;;;;;4.05;1.50;;;30.50;42.90;;;;;;5091127;28;20472;-66
2022/08/12 10:57:46;;;;;;;2.63;1.55;;;30.50;42.40;;;;;;5088128;28;20070;-66
2022/08/12 11:00:31;;;;;;;;;;;;;;;;;;;;;
2022/08/12 11:02:57;;;;;;;5.70;1.60;;;30.80;42.40;;;;;;5085392;28;21046;-66
2022/08/12 11:05:23;;;;;;;3.10;1.85;;;30.90;41.70;;;;;;5091239;28;20035;-66
2022/08/12 11:07:49;;;;;;;4.00;1.30;;;31.00;41.40;;;;;;5092610;28;20114;-66
2022/08/12 11:10:15;;;;;;;1.85;1.40;;;31.10;41.60;;;;;;5094782;28;20523;-66
2022/08/12 11:12:46;;;;;;;3.67;1.52;;;31.30;41.80;;;;;;5094756;28;20036;-66
2022/08/12 11:15:12;;;;;;;4.07;1.77;;;31.40;41.40;;;;;;5094718;28;20031;-66
2022/08/12 11:17:39;;;;;;;2.30;1.63;;;31.60;41.30;;;;;;5092113;28;20032;-66
2022/08/12 11:20:05;;;;;;;3.38;1.52;;;31.70;40.60;;;;;;5093365;28;20412;-66
2022/08/12 11:22:30;;;;;;;5.47;1.77;;;31.90;40.40;;;;;;5092919;28;20016;-66
2022/08/12 11:24:56;;;;;;;1.85;1.35;;;32.10;39.90;;;;;;5094123;28;20016;-67
2022/08/12 11:27:21;;;;;;;2.83;1.48;;;32.20;40.00;;;;;;5094015;28;20047;-66
2022/08/12 11:29:46;;;;;;;2.53;1.50;;;32.40;40.10;;;;;;5093340;28;20068;-67
2022/08/12 11:32:12;;;;;;;3.30;1.30;;;32.50;39.60;;;;;;5094324;28;20016;-66
2022/08/12 11:34:37;;;;;;;1.92;1.40;;;32.70;39.00;;;;;;5092196;28;20108;-66
2022/08/12 11:37:04;;;;;;;4.32;2.38;;;32.90;38.80;;;;;;5094403;28;20035;-67
2022/08/12 11:39:31;;;;;;;1.98;1.50;;;33.00;38.60;;;;;;5093948;28;20047;-66
2022/08/12 11:41:58;;;;;;;2.10;1.27;;;33.10;38.10;;;;;;5093467;28;20351;-67
2022/08/12 11:44:24;;;;;;;3.30;1.20;;;33.20;38.20;;;;;;5086206;28;20027;-67
2022/08/12 11:46:52;;;;;;;2.42;1.33;;;33.40;38.30;;;;;;5094010;28;20028;-67
2022/08/12 11:49:17;;;;;;;2.60;1.30;;;33.60;38.30;;;;;;5091850;28;20080;-67
2022/08/12 11:51:43;;;;;;;3.55;1.60;;;33.80;38.20;;;;;;5091145;28;20470;-67
2022/08/12 11:54:08;;;;;;;4.03;1.20;;;33.80;37.00;;;;;;5093634;28;20032;-67
2022/08/12 11:56:34;;;;;;;2.67;1.33;;;34.00;37.30;;;;;;5081079;28;20448;-66
2022/08/12 11:58:59;;;;;;;2.40;1.60;;;34.10;37.10;;;;;;5093534;28;20024;-67
2022/08/12 12:01:25;;;;;;;1.55;1.20;;;34.40;37.40;;;;;;5094083;28;20028;-67
2022/08/12 12:03:50;;;;;;;4.30;1.77;;;34.60;35.80;;;;;;5093111;28;20016;-67
2022/08/12 12:06:19;;;;;;;1.90;1.48;;;34.60;36.20;;;;;;5093691;28;20035;-67
2022/08/12 12:08:45;;;;;;;3.83;1.27;;;34.80;36.40;;;;;;5088988;28;20462;-67
2022/08/12 12:11:11;;;;;;;3.42;1.88;;;35.00;36.60;;;;;;5090759;28;20481;-67
2022/08/12 12:13:36;;;;;;;1.73;1.17;;;35.20;36.40;;;;;;5091099;28;20077;-67
2022/08/12 12:16:02;;;;;;;4.30;1.90;;;35.40;36.30;;;;;;5091367;28;20028;-67
2022/08/12 12:18:29;;;;;;;2.38;1.27;;;35.50;36.00;;;;;;5093260;28;20027;-67
2022/08/12 12:21:00;;;;;;;1.65;1.23;;;35.70;35.90;;;;;;5081283;28;20031;-67
2022/08/12 12:23:26;;;;;;;2.00;1.25;;;35.90;35.80;;;;;;5093718;28;20031;-67
2022/08/12 12:25:52;;;;;;;2.92;1.50;;;36.10;35.60;;;;;;5093197;28;20028;-67
2022/08/12 12:28:17;;;;;;;4.75;2.42;;;36.40;35.50;;;;;;5086696;28;20017;-67
2022/08/12 12:30:43;;;;;;;3.45;1.60;;;36.40;35.50;;;;;;5076239;28;20486;-67
2022/08/12 12:33:10;;;;;;;3.88;1.13;;;36.60;34.80;;;;;;5075569;28;20020;-67
2022/08/12 12:35:37;;;;;;;2.65;1.42;;;36.60;34.80;;;;;;5090647;28;20024;-67
2022/08/12 12:38:05;;;;;;;4.90;1.65;;;36.70;35.00;;;;;;5094230;28;20085;-67
2022/08/12 12:40:32;;;;;;;2.33;1.75;;;36.80;35.00;;;;;;5092913;28;20493;-67
2022/08/12 12:42:58;;;;;;;2.25;2.05;;;37.00;34.90;;;;;;5083806;28;20537;-67
2022/08/12 12:45:24;;;;;;;2.40;1.52;;;37.20;35.10;;;;;;5076750;28;20016;-67
2022/08/12 12:47:53;;;;;;;2.33;1.50;;;37.40;34.60;;;;;;5092193;28;20044;-67
2022/08/12 12:50:19;;;;;;;3.72;1.73;;;37.50;34.40;;;;;;5091664;28;20028;-67
2022/08/12 12:52:45;;;;;;;3.00;1.50;;;37.50;33.80;;;;;;5092224;28;20020;-67
2022/08/12 12:55:21;;;;;;;2.95;1.27;;;37.50;33.90;;;;;;5078026;28;20029;-67
2022/08/12 12:57:47;;;;;;;3.60;1.70;;;37.60;34.10;;;;;;5072424;28;20063;-67
2022/08/12 13:00:14;;;;;;;1.67;1.55;;;37.60;34.00;;;;;;5088680;28;20016;-67
2022/08/12 13:02:49;;;;;;;1.85;1.42;;;37.80;34.10;;;;;;5084817;28;20056;-67
2022/08/12 13:05:16;;;;;;;1.95;1.60;;;37.90;33.90;;;;;;5087014;28;20012;-67
2022/08/12 13:07:42;;;;;;;2.55;1.45;;;38.00;33.90;;;;;;5073912;28;20521;-67
2022/08/12 13:10:08;;;;;;;2.33;1.83;;;38.20;33.90;;;;;;5092008;28;20028;-67
2022/08/12 13:12:34;;;;;;;2.03;1.55;;;38.30;33.10;;;;;;5085663;28;20035;-67
2022/08/12 13:15:02;;;;;;;1.65;1.50;;;38.30;33.20;;;;;;5089396;28;20027;-67
2022/08/12 13:17:30;;;;;;;3.17;1.50;;;38.30;32.90;;;;;;5092214;28;20024;-67
2022/08/12 13:20:00;;;;;;;3.95;2.00;;;38.40;32.90;;;;;;5088414;28;20493;-67
2022/08/12 13:22:25;;;;;;;1.77;1.67;;;38.30;33.00;;;;;;5085785;28;20063;-67
2022/08/12 13:24:53;;;;;;;3.35;1.58;;;38.40;33.00;;;;;;5089567;28;20051;-67
2022/08/12 13:27:19;;;;;;;1.92;1.52;;;38.40;33.00;;;;;;5091822;28;20028;-67
2022/08/12 13:29:45;;;;;;;1.55;1.27;;;38.60;33.20;;;;;;5073576;28;20043;-67
2022/08/12 13:32:11;;;;;;;1.95;1.40;;;38.80;32.80;;;;;;5088206;28;20024;-67
2022/08/12 13:34:37;;;;;;;3.03;1.83;;;38.90;32.60;;;;;;5087439;28;20081;-67
2022/08/12 13:37:06;;;;;;;2.00;1.80;;;39.00;32.40;;;;;;5089438;28;20020;-67
2022/08/12 13:39:31;;;;;;;3.13;1.50;;;39.00;32.30;;;;;;5088603;28;20052;-67
2022/08/12 13:41:56;;;;;;;2.17;1.33;;;39.10;32.00;;;;;;5089887;28;20492;-67
2022/08/12 13:44:22;;;;;;;3.65;1.20;;;39.20;32.10;;;;;;5092099;28;20059;-67
2022/08/12 13:46:48;;;;;;;2.25;1.60;;;39.40;32.20;;;;;;5091309;28;20069;-67
2022/08/12 13:49:14;;;;;;;4.40;1.70;;;39.30;31.80;;;;;;5090082;28;20024;-67
2022/08/12 13:51:41;;;;;;;2.45;1.42;;;39.30;31.60;;;;;;5089986;28;20020;-67
2022/08/12 13:54:07;;;;;;;2.88;1.50;;;39.20;31.40;;;;;;5090194;28;20024;-67
2022/08/12 13:56:34;;;;;;;2.97;1.42;;;39.20;31.60;;;;;;5090651;28;20393;-68
2022/08/12 13:59:00;;;;;;;2.25;1.25;;;39.30;31.80;;;;;;5072184;28;20111;-67
2022/08/12 14:01:27;;;;;;;2.47;1.52;;;39.40;31.60;;;;;;5089427;28;20030;-67
2022/08/12 14:03:53;;;;;;;3.55;1.50;;;39.40;31.40;;;;;;5086745;28;21172;-67
2022/08/12 14:06:19;;;;;;;1.50;1.40;;;39.40;31.50;;;;;;5089927;28;20136;-67
2022/08/12 14:08:47;;;;;;;1.90;1.38;;;39.50;31.40;;;;;;5104624;28;20020;-67
2022/08/12 14:11:13;;;;;;;2.00;1.48;;;39.60;31.30;;;;;;5089464;28;20024;-67
2022/08/12 14:13:41;;;;;;;1.35;1.20;;;39.70;31.50;;;;;;5090549;28;20059;-67
2022/08/12 14:16:12;;;;;;;2.70;1.20;;;39.80;31.30;;;;;;5086983;28;20027;-67
2022/08/12 14:18:38;;;;;;;1.60;1.40;;;39.80;31.40;;;;;;5083008;28;20150;-67
2022/08/12 14:21:08;;;;;;;2.28;1.50;;;39.80;31.30;;;;;;5090944;28;20052;-67
2022/08/12 14:23:35;;;;;;;1.75;1.20;;;39.80;31.10;;;;;;5091735;28;20030;-67
2022/08/12 14:26:04;;;;;;;1.70;1.38;;;40.00;31.30;;;;;;5090268;28;20442;-67
2022/08/12 14:28:33;;;;;;;3.00;1.35;;;40.10;31.00;;;;;;5088269;28;20064;-68
2022/08/12 14:31:01;;;;;;;2.58;1.40;;;40.00;30.60;;;;;;5090886;28;20024;-67
2022/08/12 14:33:32;;;;;;;;;;;39.90;30.60;;;;;;5089334;28;20024;-67
2022/08/12 14:35:59;;;;;;;4.05;1.33;;;39.80;30.70;;;;;;5087671;28;20015;-67
2022/08/12 14:38:30;;;;;;;1.92;1.27;;;39.70;30.70;;;;;;5090436;28;20024;-67